Saltville, Virginia
Current Conditions -  °F | °C
As of 9:55 AM on Monday 24 Nov 2014 (Local Time) from KJFZ Reporting Station
Clear Clear  
Wind Chill: 64°   Ceiling: Unl
Heat Index: 64°   Visibility: 10mi
Dew Point: 44°   Wind: 9mph
Humidity: 49%   Direction: 200°SSW
Pressure: 29.67"   Gusts: 20mph
Location:  36.88°N, 81.76°W
Report Text: KJFZ 241455Z AUTO 20008G17KT 150V240 10SM CLR 18/07 A2967 RMK AO2 T01770069
Loading
Personal Weather Stations






























Interactive Weather Map New forecast layout! Learn more

10-Day Weather Forecast

Advertisements
Track Severe Weather on mobile